createdAt,value
2022-12-11T00:00:15.699Z,93213.16
2022-12-11T00:02:14.129Z,93198.13
2022-12-11T00:04:12.334Z,93224.38
2022-12-11T00:06:12.304Z,93208.06
2022-12-11T00:08:10.690Z,93217.97
2022-12-11T00:10:09.667Z,93200.94
2022-12-11T00:12:09.389Z,93193.06
2022-12-11T00:14:08.947Z,93194.94
2022-12-11T00:16:07.513Z,93174.94
2022-12-11T00:18:05.731Z,93179.03
2022-12-11T00:20:04.258Z,93213.34
2022-12-11T00:22:02.767Z,93185.22
2022-12-11T00:24:01.168Z,93210.28
2022-12-11T00:25:59.499Z,93214.56
2022-12-11T00:27:57.911Z,93190.28
2022-12-11T00:29:57.516Z,93202.13
2022-12-11T00:31:56.585Z,93226.56
2022-12-11T00:33:54.904Z,93204.69
2022-12-11T00:35:53.209Z,93186.63
2022-12-11T00:37:51.471Z,93178.50
2022-12-11T00:39:49.864Z,93182.59
2022-12-11T00:41:48.149Z,93191.00
2022-12-11T00:43:46.534Z,93159.59
2022-12-11T00:45:48.348Z,93147.25
2022-12-11T00:47:46.543Z,93183.50
2022-12-11T00:49:49.577Z,93198.41
2022-12-11T00:51:48.312Z,93193.91
2022-12-11T00:53:46.783Z,93183.66
2022-12-11T00:55:45.303Z,93206.84
2022-12-11T00:57:43.774Z,93193.81
2022-12-11T00:59:42.027Z,93155.53
2022-12-11T01:01:41.724Z,93158.16
2022-12-11T01:03:40.386Z,93176.91
2022-12-11T01:05:38.556Z,93187.06
2022-12-11T01:07:37.010Z,93164.84
2022-12-11T01:09:52.927Z,93163.56
2022-12-11T01:11:51.205Z,93183.59
2022-12-11T01:13:49.593Z,93199.91
2022-12-11T01:15:47.823Z,93211.97
2022-12-11T01:17:47.718Z,93212.78
2022-12-11T01:19:46.061Z,93199.91
2022-12-11T01:21:44.252Z,93166.06
2022-12-11T01:23:42.451Z,93194.66
2022-12-11T01:25:41.377Z,93222.47
2022-12-11T01:27:40.308Z,93233.72
2022-12-11T01:29:38.698Z,93146.00
2022-12-11T01:31:37.879Z,93198.56
2022-12-11T01:33:37.613Z,93189.13
2022-12-11T01:35:35.769Z,93115.03
2022-12-11T01:37:34.566Z,93157.16
2022-12-11T01:39:32.860Z,93167.06
2022-12-11T01:41:31.113Z,93172.38
2022-12-11T01:43:29.302Z,93174.75
2022-12-11T01:45:33.303Z,93173.50
2022-12-11T01:47:31.642Z,93164.84
2022-12-11T01:49:31.412Z,93152.91
2022-12-11T01:51:32.391Z,93158.16
2022-12-11T01:53:34.672Z,93179.25
2022-12-11T01:55:34.217Z,93175.66
2022-12-11T01:57:32.489Z,93172.66
2022-12-11T01:59:34.369Z,93125.19
2022-12-11T02:01:36.187Z,93154.34
2022-12-11T02:03:34.681Z,93178.28
2022-12-11T02:05:34.483Z,93172.47
2022-12-11T02:07:40.231Z,93180.72
2022-12-11T02:09:40.708Z,93179.81
2022-12-11T02:11:53.891Z,93150.81
2022-12-11T02:13:58.668Z,93157.44
2022-12-11T02:16:05.351Z,93163.41
2022-12-11T02:18:18.346Z,93162.13
2022-12-11T02:20:23.377Z,93146.38
2022-12-11T02:22:35.173Z,93121.25
2022-12-11T02:24:52.079Z,93116.06
2022-12-11T02:27:19.316Z,93102.38
2022-12-11T02:29:24.326Z,93120.00
2022-12-11T02:31:28.124Z,93099.25
2022-12-11T02:33:45.271Z,93104.53
2022-12-11T02:35:45.388Z,93090.94
2022-12-11T02:37:46.394Z,93104.81
2022-12-11T02:39:47.375Z,93109.88
2022-12-11T02:41:50.133Z,93111.53
2022-12-11T02:43:49.710Z,93112.28
2022-12-11T02:45:51.187Z,93106.00
2022-12-11T02:47:50.381Z,93113.75
2022-12-11T02:49:51.569Z,93113.34
2022-12-11T02:51:52.331Z,93127.88
2022-12-11T02:53:52.787Z,93130.22
2022-12-11T02:55:55.869Z,93129.22
2022-12-11T02:58:00.991Z,93115.97
2022-12-11T02:59:59.398Z,93136.94
2022-12-11T03:01:58.974Z,93135.56
2022-12-11T03:04:01.430Z,93109.25
2022-12-11T03:05:59.777Z,93126.22
2022-12-11T03:07:58.086Z,93114.50
2022-12-11T03:09:56.389Z,93108.06
2022-12-11T03:11:54.763Z,93102.56
2022-12-11T03:13:53.973Z,93109.56
2022-12-11T03:16:05.498Z,93094.03
2022-12-11T03:18:12.232Z,93105.50
2022-12-11T03:20:17.814Z,93099.63
2022-12-11T03:22:20.528Z,93101.03
2022-12-11T03:24:24.098Z,93088.97
2022-12-11T03:26:24.294Z,93099.94
2022-12-11T03:28:28.114Z,93092.91
2022-12-11T03:30:30.104Z,93088.66
2022-12-11T03:32:32.432Z,93098.28
2022-12-11T03:34:39.633Z,93095.78
2022-12-11T03:36:40.555Z,93116.13
2022-12-11T03:38:42.751Z,93117.38
2022-12-11T03:40:43.400Z,93108.69
2022-12-11T03:42:43.604Z,93124.44
2022-12-11T03:44:44.001Z,93130.97
2022-12-11T03:46:44.815Z,93143.97
2022-12-11T03:48:46.797Z,93152.72
2022-12-11T03:50:49.301Z,93149.06
2022-12-11T03:52:49.430Z,93164.47
2022-12-11T03:54:50.836Z,93139.34
2022-12-11T03:56:52.565Z,93146.47
2022-12-11T03:58:50.808Z,93154.56
2022-12-11T04:00:49.083Z,93159.06
2022-12-11T04:03:12.956Z,93164.31
2022-12-11T04:05:13.167Z,93182.56
2022-12-11T04:07:13.122Z,93190.03
2022-12-11T04:09:11.568Z,93190.44
2022-12-11T04:11:27.084Z,93196.72
2022-12-11T04:13:25.433Z,93189.41
2022-12-11T04:15:22.504Z,93203.78
2022-12-11T04:17:34.622Z,93196.47
2022-12-11T04:19:50.632Z,93204.16
2022-12-11T04:22:06.035Z,93217.31
2022-12-11T04:24:18.206Z,93220.00
2022-12-11T04:26:19.924Z,93221.03
2022-12-11T04:28:18.265Z,93227.56
2022-12-11T04:30:19.729Z,93221.63
2022-12-11T04:32:17.869Z,93226.31
2022-12-11T04:34:16.074Z,93234.84
2022-12-11T04:36:15.155Z,93234.63
2022-12-11T04:38:13.328Z,93240.28
2022-12-11T04:40:15.499Z,93244.75
2022-12-11T04:42:13.718Z,93245.41
2022-12-11T04:44:12.079Z,93250.25
2022-12-11T04:46:12.427Z,93241.13
2022-12-11T04:48:10.703Z,93243.56
2022-12-11T04:50:11.298Z,93259.44
2022-12-11T04:52:09.535Z,93246.50
2022-12-11T04:54:07.830Z,93253.38
2022-12-11T04:56:09.468Z,93246.91
2022-12-11T04:58:07.789Z,93261.81
2022-12-11T05:00:08.951Z,93241.91
2022-12-11T05:02:07.303Z,93244.56
2022-12-11T05:04:05.571Z,93250.75
2022-12-11T05:06:04.113Z,93239.72
2022-12-11T05:08:02.456Z,93254.31
2022-12-11T05:10:00.666Z,93210.00
2022-12-11T05:12:00.474Z,93226.09
2022-12-11T05:13:58.766Z,93221.78
2022-12-11T05:15:57.969Z,93234.88
2022-12-11T05:17:56.170Z,93214.56
2022-12-11T05:19:54.584Z,93212.75
2022-12-11T05:21:53.057Z,93226.97
2022-12-11T05:23:51.256Z,93225.56
2022-12-11T05:25:53.397Z,93229.00
2022-12-11T05:27:53.104Z,93230.81
2022-12-11T05:29:54.869Z,93227.56
2022-12-11T05:31:57.478Z,93234.09
2022-12-11T05:33:55.998Z,93228.41
2022-12-11T05:35:54.248Z,93222.53
2022-12-11T05:37:52.499Z,93243.88
2022-12-11T05:39:50.862Z,93244.28
2022-12-11T05:41:49.034Z,93231.06
2022-12-11T05:43:49.041Z,93237.16
2022-12-11T05:45:47.242Z,93244.69
2022-12-11T05:47:45.416Z,93224.34
2022-12-11T05:49:43.950Z,93238.16
2022-12-11T05:51:43.341Z,93214.69
2022-12-11T05:53:42.907Z,93223.03
2022-12-11T05:55:41.223Z,93224.03
2022-12-11T05:57:39.495Z,93211.22
2022-12-11T05:59:39.173Z,93217.88
2022-12-11T06:01:39.369Z,93217.47
2022-12-11T06:03:37.601Z,93211.38
2022-12-11T06:05:39.199Z,93227.44
2022-12-11T06:07:37.416Z,93197.19
2022-12-11T06:09:35.693Z,93219.38
2022-12-11T06:11:35.684Z,93220.78
2022-12-11T06:13:34.434Z,93203.28
2022-12-11T06:15:34.145Z,93211.38
2022-12-11T06:17:32.300Z,93205.47
2022-12-11T06:19:36.431Z,93251.38
2022-12-11T06:21:35.387Z,93232.78
2022-12-11T06:23:33.466Z,93235.69
2022-12-11T06:25:32.194Z,93260.44
2022-12-11T06:27:30.401Z,93251.75
2022-12-11T06:29:28.668Z,93230.41
2022-12-11T06:31:28.898Z,93243.22
2022-12-11T06:33:27.157Z,93245.22
2022-12-11T06:35:25.466Z,93238.75
2022-12-11T06:37:23.615Z,93248.72
2022-12-11T06:39:21.803Z,93252.38
2022-12-11T06:41:20.356Z,93253.59
2022-12-11T06:43:18.493Z,93237.34
2022-12-11T06:45:16.699Z,93230.41
2022-12-11T06:47:16.437Z,93244.44
2022-12-11T06:49:14.653Z,93261.72
2022-12-11T06:51:14.752Z,93260.84
2022-12-11T06:53:14.223Z,93256.63
2022-12-11T06:55:12.888Z,93245.66
2022-12-11T06:57:11.462Z,93235.69
2022-12-11T06:59:12.866Z,93243.44
2022-12-11T07:01:17.273Z,93241.41
2022-12-11T07:03:16.904Z,93255.84
2022-12-11T07:05:15.238Z,93249.56
2022-12-11T07:07:13.558Z,93262.59
2022-12-11T07:09:11.702Z,93254.88
2022-12-11T07:11:12.610Z,93257.69
2022-12-11T07:13:10.944Z,93260.97
2022-12-11T07:15:10.430Z,93270.13
2022-12-11T07:17:08.905Z,93262.00
2022-12-11T07:19:08.410Z,93268.28
2022-12-11T07:21:07.465Z,93260.34
2022-12-11T07:23:05.678Z,93274.22
2022-12-11T07:25:04.113Z,93268.31
2022-12-11T07:27:02.295Z,93267.88
2022-12-11T07:29:01.283Z,93269.69
2022-12-11T07:30:59.498Z,93268.47
2022-12-11T07:32:57.795Z,93277.88
2022-12-11T07:34:57.509Z,93281.91
2022-12-11T07:36:55.801Z,93286.41
2022-12-11T07:38:54.121Z,93294.75
2022-12-11T07:40:52.452Z,93301.47
2022-12-11T07:42:50.664Z,93304.53
2022-12-11T07:44:48.804Z,93306.13
2022-12-11T07:46:47.111Z,93301.28
2022-12-11T07:48:48.702Z,93316.34
2022-12-11T07:50:48.386Z,93313.69
2022-12-11T07:52:46.653Z,93300.06
2022-12-11T07:54:44.818Z,93296.38
2022-12-11T07:56:44.053Z,93310.63
2022-12-11T07:58:42.356Z,93313.88
2022-12-11T08:00:40.644Z,93308.81
2022-12-11T08:02:39.104Z,93315.94
2022-12-11T08:04:37.417Z,93305.34
2022-12-11T08:06:39.306Z,93295.78
2022-12-11T08:08:37.853Z,93299.66
2022-12-11T08:10:36.007Z,93314.69
2022-12-11T08:12:34.300Z,93305.31
2022-12-11T08:14:32.581Z,93307.78
2022-12-11T08:16:30.923Z,93312.25
2022-12-11T08:18:29.153Z,93285.13
2022-12-11T08:20:27.468Z,93299.41
2022-12-11T08:22:27.208Z,93306.09
2022-12-11T08:24:25.535Z,93308.97
2022-12-11T08:26:25.420Z,93328.56
2022-12-11T08:28:23.613Z,93324.06
2022-12-11T08:30:21.805Z,93310.63
2022-12-11T08:32:20.120Z,93321.59
2022-12-11T08:34:18.346Z,93319.19
2022-12-11T08:36:19.038Z,93313.47
2022-12-11T08:38:23.674Z,93307.34
2022-12-11T08:40:23.453Z,93316.28
2022-12-11T08:42:21.849Z,93312.97
2022-12-11T08:44:19.994Z,93308.31
2022-12-11T08:46:18.329Z,93318.09
2022-12-11T08:48:16.748Z,93316.69
2022-12-11T08:50:14.929Z,93318.34
2022-12-11T08:52:13.301Z,93311.63
2022-12-11T08:54:13.069Z,93316.69
2022-12-11T08:56:13.295Z,93310.19
2022-12-11T08:58:11.601Z,93312.06
2022-12-11T09:00:13.486Z,93304.34
2022-12-11T09:02:13.496Z,93289.25
2022-12-11T09:04:11.871Z,93287.00
2022-12-11T09:06:12.468Z,93274.81
2022-12-11T09:08:10.656Z,93276.44
2022-12-11T09:10:11.307Z,93266.47
2022-12-11T09:12:09.598Z,93281.94
2022-12-11T09:14:08.489Z,93278.44
2022-12-11T09:16:08.171Z,93283.53
2022-12-11T09:18:06.764Z,93281.22
2022-12-11T09:20:06.085Z,93286.31
2022-12-11T09:22:04.407Z,93280.78
2022-12-11T09:24:03.033Z,93285.28
2022-12-11T09:26:05.257Z,93280.25
2022-12-11T09:28:03.538Z,93268.84
2022-12-11T09:30:01.771Z,93260.84
2022-12-11T09:32:00.212Z,93260.84
2022-12-11T09:34:00.771Z,93278.09
2022-12-11T09:35:59.967Z,93278.88
2022-12-11T09:37:58.152Z,93260.78
2022-12-11T09:39:56.377Z,93259.69
2022-12-11T09:42:02.501Z,93261.06
2022-12-11T09:44:07.778Z,93272.44
2022-12-11T09:46:10.894Z,93269.00
2022-12-11T09:48:12.522Z,93274.09
2022-12-11T09:50:16.928Z,93267.00
2022-12-11T09:52:18.685Z,93258.78
2022-12-11T09:54:17.063Z,93260.38
2022-12-11T09:56:20.745Z,93278.19
2022-12-11T09:58:29.507Z,93273.84
2022-12-11T10:00:32.534Z,93254.59
2022-12-11T10:02:42.880Z,93254.16
2022-12-11T10:04:54.600Z,93273.47
2022-12-11T10:07:05.013Z,93270.63
2022-12-11T10:09:13.826Z,93272.69
2022-12-11T10:11:33.179Z,93275.09
2022-12-11T10:13:43.835Z,93262.69
2022-12-11T10:15:50.550Z,93265.25
2022-12-11T10:17:49.293Z,93268.28
2022-12-11T10:19:48.069Z,93273.88
2022-12-11T10:21:47.176Z,93271.41
2022-12-11T10:23:52.448Z,93265.00
2022-12-11T10:25:55.859Z,93266.22
2022-12-11T10:27:54.160Z,93268.16
2022-12-11T10:30:08.931Z,93269.94
2022-12-11T10:32:17.146Z,93269.59
2022-12-11T10:34:26.121Z,93270.28
2022-12-11T10:36:29.722Z,93281.31
2022-12-11T10:38:30.494Z,93271.53
2022-12-11T10:40:32.497Z,93261.31
2022-12-11T10:42:30.764Z,93259.63
2022-12-11T10:44:30.570Z,93251.09
2022-12-11T10:46:33.092Z,93245.34
2022-12-11T10:48:31.737Z,93237.81
2022-12-11T10:50:29.993Z,93243.25
2022-12-11T10:52:32.548Z,93237.31
2022-12-11T10:54:35.062Z,93243.28
2022-12-11T10:56:35.331Z,93216.00
2022-12-11T10:58:35.217Z,93211.16
2022-12-11T11:00:37.787Z,93214.31
2022-12-11T11:02:40.326Z,93215.78
2022-12-11T11:04:40.272Z,93213.72
2022-12-11T11:06:38.579Z,93217.94
2022-12-11T11:08:42.659Z,93215.13
2022-12-11T11:10:50.746Z,93204.38
2022-12-11T11:12:50.936Z,93217.47
2022-12-11T11:14:59.834Z,93210.94
2022-12-11T11:17:02.227Z,93228.50
2022-12-11T11:19:01.846Z,93217.00
2022-12-11T11:21:01.119Z,93217.53
2022-12-11T11:23:02.816Z,93217.00
2022-12-11T11:25:01.469Z,93218.50
2022-12-11T11:27:15.215Z,93219.84
2022-12-11T11:29:26.951Z,93223.38
2022-12-11T11:31:34.076Z,93214.84
2022-12-11T11:33:34.631Z,93214.53
2022-12-11T11:35:34.484Z,93215.84
2022-12-11T11:37:34.483Z,93206.50
2022-12-11T11:39:37.108Z,93211.84
2022-12-11T11:41:44.598Z,93214.22
2022-12-11T11:43:46.506Z,93211.34
2022-12-11T11:45:48.847Z,93206.53
2022-12-11T11:47:58.249Z,93207.13
2022-12-11T11:50:07.238Z,93206.69
2022-12-11T11:52:15.270Z,93202.72
2022-12-11T11:54:25.350Z,93199.47
2022-12-11T11:56:27.168Z,93197.69
2022-12-11T11:58:29.459Z,93192.28
2022-12-11T12:00:33.697Z,93202.56
2022-12-11T12:02:32.586Z,93190.66
2022-12-11T12:04:35.112Z,93204.81
2022-12-11T12:06:50.584Z,93204.91
2022-12-11T12:09:03.904Z,93197.41
2022-12-11T12:11:08.170Z,93202.34
2022-12-11T12:13:30.125Z,93205.13
2022-12-11T12:15:40.353Z,93213.72
2022-12-11T12:17:55.388Z,93212.13
2022-12-11T12:20:05.772Z,93213.44
2022-12-11T12:22:11.206Z,93232.25
2022-12-11T12:24:26.150Z,93243.44
2022-12-11T12:26:29.030Z,93243.94
2022-12-11T12:28:37.541Z,93258.56
2022-12-11T12:30:46.550Z,93255.22
2022-12-11T12:32:54.223Z,93267.72
2022-12-11T12:35:12.030Z,93275.03
2022-12-11T12:37:22.528Z,93275.66
2022-12-11T12:39:31.154Z,93269.88
2022-12-11T12:41:42.518Z,93284.03
2022-12-11T12:44:01.999Z,93295.53
2022-12-11T12:46:09.662Z,93298.94
2022-12-11T12:48:09.875Z,93308.16
2022-12-11T12:50:14.888Z,93306.97
2022-12-11T12:52:17.685Z,93307.28
2022-12-11T12:54:18.955Z,93298.13
2022-12-11T12:56:19.066Z,93308.34
2022-12-11T12:58:28.831Z,93304.78
2022-12-11T13:00:29.154Z,93325.41
2022-12-11T13:02:27.760Z,93325.25
2022-12-11T13:06:54.975Z,93319.78
2022-12-11T13:08:53.371Z,93326.34
2022-12-11T13:11:01.944Z,93346.09
2022-12-11T13:13:02.984Z,93342.34
2022-12-11T13:15:02.025Z,93334.41
2022-12-11T13:17:08.803Z,93362.72
2022-12-11T13:19:18.541Z,93362.56
2022-12-11T13:21:29.462Z,93358.94
2022-12-11T13:23:30.313Z,93365.09
2022-12-11T13:25:30.735Z,93376.19
2022-12-11T13:27:39.298Z,93372.56
2022-12-11T13:29:41.368Z,93387.28
2022-12-11T13:31:41.378Z,93394.16
2022-12-11T13:33:44.231Z,93393.09
2022-12-11T13:35:42.692Z,93391.25
2022-12-11T13:37:42.768Z,93405.22
2022-12-11T13:39:41.650Z,93416.44
2022-12-11T13:41:40.185Z,93431.78
2022-12-11T13:43:41.985Z,93436.25
2022-12-11T13:45:48.509Z,93442.63
2022-12-11T13:47:47.725Z,93443.19
2022-12-11T13:49:53.291Z,93432.28
2022-12-11T13:52:00.784Z,93443.41
2022-12-11T13:54:17.199Z,93456.09
2022-12-11T13:56:20.633Z,93461.91
2022-12-11T13:58:21.829Z,93460.78
2022-12-11T14:00:23.917Z,93472.06
2022-12-11T14:02:27.609Z,93471.06
2022-12-11T14:04:30.040Z,93457.94
2022-12-11T14:06:32.008Z,93454.06
2022-12-11T14:08:36.409Z,93485.78
2022-12-11T14:10:34.698Z,93476.38
2022-12-11T14:12:33.991Z,93479.03
2022-12-11T14:14:42.675Z,93480.13
2022-12-11T14:16:41.019Z,93490.28
2022-12-11T14:18:40.788Z,93489.06
2022-12-11T14:20:38.978Z,93493.41
2022-12-11T14:22:37.165Z,93501.84
2022-12-11T14:24:35.918Z,93504.97
2022-12-11T14:26:38.075Z,93505.81
2022-12-11T14:28:40.156Z,93525.25
2022-12-11T14:30:40.477Z,93527.47
2022-12-11T14:32:44.804Z,93532.97
2022-12-11T14:34:47.432Z,93530.81
2022-12-11T14:36:47.874Z,93524.78
2022-12-11T14:38:49.463Z,93532.44
2022-12-11T14:40:53.412Z,93536.34
2022-12-11T14:43:00.127Z,93541.59
2022-12-11T14:45:09.864Z,93562.91
2022-12-11T14:47:15.608Z,93567.16
2022-12-11T14:49:22.413Z,93575.78
2022-12-11T14:51:22.176Z,93569.63
2022-12-11T14:53:23.320Z,93584.03
2022-12-11T14:55:26.236Z,93578.41
2022-12-11T14:57:27.655Z,93567.19
2022-12-11T14:59:31.843Z,93569.91
2022-12-11T15:01:32.969Z,93581.44
2022-12-11T15:03:36.215Z,93590.63
2022-12-11T15:05:40.862Z,93585.41
2022-12-11T15:07:42.286Z,93603.53
2022-12-11T15:09:42.516Z,93583.78
2022-12-11T15:11:40.811Z,93596.13
2022-12-11T15:13:49.950Z,93603.13
2022-12-11T15:15:48.978Z,93603.66
2022-12-11T15:17:52.662Z,93608.31
2022-12-11T15:19:54.265Z,93607.91
2022-12-11T15:21:53.349Z,93612.03
2022-12-11T15:23:56.183Z,93616.41
2022-12-11T15:25:58.197Z,93617.38
2022-12-11T15:27:58.816Z,93612.72
2022-12-11T15:29:57.374Z,93625.59
2022-12-11T15:32:03.690Z,93636.28
2022-12-11T15:34:02.856Z,93643.69
2022-12-11T15:36:03.761Z,93646.44
2022-12-11T15:38:02.158Z,93656.59
2022-12-11T15:40:04.465Z,93641.22
2022-12-11T15:42:03.108Z,93642.03
2022-12-11T15:44:03.215Z,93650.41
2022-12-11T15:46:03.150Z,93640.25
2022-12-11T15:48:01.484Z,93639.41
2022-12-11T15:50:02.590Z,93643.50
2022-12-11T15:52:00.897Z,93641.09
2022-12-11T15:53:59.207Z,93652.03
2022-12-11T15:56:00.804Z,93645.84
2022-12-11T15:58:02.479Z,93643.69
2022-12-11T16:00:01.329Z,93645.06
2022-12-11T16:01:59.839Z,93656.31
2022-12-11T16:04:04.562Z,93654.63
2022-12-11T16:06:03.629Z,93664.34
2022-12-11T16:08:02.012Z,93675.31
2022-12-11T16:10:00.370Z,93679.97
2022-12-11T16:12:00.186Z,93681.34
2022-12-11T16:13:58.993Z,93682.72
2022-12-11T16:15:58.520Z,93686.84
2022-12-11T16:18:04.855Z,93693.69
2022-12-11T16:20:03.335Z,93692.47
2022-12-11T16:22:01.970Z,93713.00
2022-12-11T16:24:00.166Z,93706.72
2022-12-11T16:25:58.448Z,93716.97
2022-12-11T16:27:59.451Z,93712.56
2022-12-11T16:29:58.865Z,93725.97
2022-12-11T16:31:57.228Z,93716.53
2022-12-11T16:33:55.387Z,93715.16
2022-12-11T16:35:53.720Z,93719.75
2022-12-11T16:37:52.711Z,93711.59
2022-12-11T16:39:50.879Z,93709.38
2022-12-11T16:41:51.505Z,93708.97
2022-12-11T16:43:51.202Z,93711.44
2022-12-11T16:45:55.802Z,93738.41
2022-12-11T16:47:54.380Z,93731.84
2022-12-11T16:49:52.889Z,93734.16
2022-12-11T16:51:53.790Z,93731.38
2022-12-11T16:53:53.773Z,93734.63
2022-12-11T16:55:52.767Z,93744.06
2022-12-11T16:57:51.052Z,93740.06
2022-12-11T16:59:50.722Z,93736.50
2022-12-11T17:01:50.724Z,93734.97
2022-12-11T17:03:48.996Z,93731.03
2022-12-11T17:05:50.440Z,93742.44
2022-12-11T17:07:48.748Z,93748.78
2022-12-11T17:09:47.328Z,93755.53
2022-12-11T17:11:46.621Z,93751.81
2022-12-11T17:13:45.241Z,93750.88
2022-12-11T17:15:46.385Z,93749.91
2022-12-11T17:17:44.820Z,93755.53
2022-12-11T17:19:43.178Z,93750.31
2022-12-11T17:21:44.723Z,93749.84
2022-12-11T17:23:45.646Z,93753.75
2022-12-11T17:25:44.638Z,93761.88
2022-12-11T17:27:42.917Z,93770.75
2022-12-11T17:29:41.187Z,93785.94
2022-12-11T17:31:41.525Z,93769.38
2022-12-11T17:33:39.844Z,93775.34
2022-12-11T17:35:41.212Z,93767.47
2022-12-11T17:37:39.651Z,93761.13
2022-12-11T17:39:38.289Z,93758.72
2022-12-11T17:41:36.530Z,93762.34
2022-12-11T17:43:35.150Z,93762.81
2022-12-11T17:45:33.305Z,93750.53
2022-12-11T17:47:33.124Z,93757.38
2022-12-11T17:49:31.416Z,93755.19
2022-12-11T17:51:29.611Z,93761.69
2022-12-11T17:53:27.951Z,93751.28
2022-12-11T17:55:26.228Z,93762.72
2022-12-11T17:57:24.635Z,93767.91
2022-12-11T17:59:22.905Z,93761.59
2022-12-11T18:01:21.373Z,93772.00
2022-12-11T18:03:21.345Z,93773.59
2022-12-11T18:05:19.754Z,93771.88
2022-12-11T18:07:19.253Z,93780.31
2022-12-11T18:09:17.515Z,93783.16
2022-12-11T18:11:17.634Z,93779.84
2022-12-11T18:13:16.063Z,93779.63
2022-12-11T18:15:15.104Z,93784.25
2022-12-11T18:17:13.850Z,93790.84
2022-12-11T18:19:14.172Z,93790.94
2022-12-11T18:21:14.415Z,93796.25
2022-12-11T18:23:12.751Z,93788.09
2022-12-11T18:25:13.012Z,93790.72
2022-12-11T18:27:14.445Z,93782.94
2022-12-11T18:29:12.759Z,93777.19
2022-12-11T18:31:11.722Z,93778.63
2022-12-11T18:33:10.230Z,93779.91
2022-12-11T18:35:11.410Z,93782.38
2022-12-11T18:37:09.883Z,93783.81
2022-12-11T18:39:08.229Z,93785.47
2022-12-11T18:41:10.372Z,93782.38
2022-12-11T18:43:10.608Z,93785.47
2022-12-11T18:45:10.702Z,93783.81
2022-12-11T18:47:09.685Z,93792.69
2022-12-11T18:49:08.723Z,93799.38
2022-12-11T18:51:11.075Z,93804.34
2022-12-11T18:53:09.286Z,93804.81
2022-12-11T18:55:11.274Z,93811.19
2022-12-11T18:57:09.763Z,93804.34
2022-12-11T18:59:08.229Z,93803.75
2022-12-11T19:01:10.699Z,93813.09
2022-12-11T19:03:10.088Z,93814.28
2022-12-11T19:05:09.272Z,93806.59
2022-12-11T19:07:08.972Z,93804.81
2022-12-11T19:09:09.342Z,93797.97
2022-12-11T19:11:10.673Z,93799.66
2022-12-11T19:13:09.050Z,93799.75
2022-12-11T19:15:08.403Z,93814.97
2022-12-11T19:17:06.780Z,93807.53
2022-12-11T19:19:07.449Z,93816.16
2022-12-11T19:21:12.473Z,93831.25
2022-12-11T19:23:13.108Z,93833.59
2022-12-11T19:25:12.162Z,93836.09
2022-12-11T19:27:13.621Z,93827.56
2022-12-11T19:29:20.442Z,93825.13
2022-12-11T19:31:21.011Z,93836.69
2022-12-11T19:33:19.410Z,93831.59
2022-12-11T19:35:18.426Z,93847.75
2022-12-11T19:37:16.887Z,93863.00
2022-12-11T19:39:16.819Z,93859.31
2022-12-11T19:41:17.772Z,93859.78
2022-12-11T19:43:16.294Z,93860.84
2022-12-11T19:45:14.878Z,93869.31
2022-12-11T19:47:13.306Z,93869.31
2022-12-11T19:49:12.844Z,93866.84
2022-12-11T19:51:13.501Z,93878.03
2022-12-11T19:53:11.633Z,93870.47
2022-12-11T19:55:13.635Z,93866.22
2022-12-11T19:57:12.196Z,93870.56
2022-12-11T19:59:16.704Z,93864.44
2022-12-11T20:01:22.407Z,93859.47
2022-12-11T20:03:21.257Z,93871.00
2022-12-11T20:05:19.906Z,93859.91
2022-12-11T20:07:18.639Z,93852.41
2022-12-11T20:09:17.309Z,93856.66
2022-12-11T20:11:19.018Z,93834.59
2022-12-11T20:13:17.739Z,93836.00
2022-12-11T20:15:19.541Z,93837.09
2022-12-11T20:17:17.874Z,93836.00
2022-12-11T20:19:16.468Z,93849.47
2022-12-11T20:21:17.112Z,93841.69
2022-12-11T20:23:15.390Z,93841.19
2022-12-11T20:25:14.201Z,93863.50
2022-12-11T20:27:14.369Z,93856.09
2022-12-11T20:29:13.753Z,93858.56
2022-12-11T20:31:19.684Z,93863.50
2022-12-11T20:33:19.807Z,93856.47
2022-12-11T20:35:22.320Z,93854.69
2022-12-11T20:37:23.348Z,93856.09
2022-12-11T20:39:24.461Z,93847.25
2022-12-11T20:41:24.867Z,93859.53
2022-12-11T20:43:24.481Z,93846.69
2022-12-11T20:45:22.707Z,93847.16
2022-12-11T20:47:21.366Z,93853.88
2022-12-11T20:49:22.502Z,93857.78
2022-12-11T20:51:26.055Z,93862.63
2022-12-11T20:53:24.707Z,93859.56
2022-12-11T20:55:24.374Z,93857.81
2022-12-11T20:57:22.646Z,93865.34
2022-12-11T20:59:22.523Z,93862.88
2022-12-11T21:01:23.604Z,93869.94
2022-12-11T21:03:21.751Z,93879.41
2022-12-11T21:05:20.212Z,93884.59
2022-12-11T21:07:18.515Z,93886.25
2022-12-11T21:09:17.901Z,93877.28
2022-12-11T21:11:16.166Z,93883.28
2022-12-11T21:13:14.411Z,93881.78
2022-12-11T21:15:14.584Z,93880.72
2022-12-11T21:17:12.959Z,93882.25
2022-12-11T21:19:16.704Z,93881.78
2022-12-11T21:21:16.390Z,93867.94
2022-12-11T21:23:14.664Z,93869.47
2022-12-11T21:25:13.503Z,93872.19
2022-12-11T21:27:12.117Z,93888.25
2022-12-11T21:29:10.503Z,93895.00
2022-12-11T21:31:14.428Z,93890.72
2022-12-11T21:33:13.051Z,93885.88
2022-12-11T21:35:11.922Z,93890.03
2022-12-11T21:37:10.915Z,93892.38
2022-12-11T21:39:11.928Z,93889.09
2022-12-11T21:41:11.121Z,93877.63
2022-12-11T21:43:09.250Z,93876.72
2022-12-11T21:47:28.935Z,93890.38
2022-12-11T21:49:27.125Z,93882.81
2022-12-11T21:51:31.072Z,93885.31
2022-12-11T21:53:34.274Z,93874.91
2022-12-11T21:55:33.158Z,93878.94
2022-12-11T21:57:31.332Z,93879.06
2022-12-11T21:59:30.589Z,93877.28
2022-12-11T22:01:32.343Z,93871.97
2022-12-11T22:03:33.933Z,93886.59
2022-12-11T22:05:32.184Z,93894.53
2022-12-11T22:07:30.445Z,93896.41
2022-12-11T22:09:28.777Z,93895.13
2022-12-11T22:11:29.348Z,93896.19
2022-12-11T22:13:27.841Z,93885.56
2022-12-11T22:15:26.168Z,93882.00
2022-12-11T22:17:24.927Z,93884.97
2022-12-11T22:19:29.071Z,93889.56
2022-12-11T22:21:30.596Z,93892.63
2022-12-11T22:23:28.922Z,93887.44
2022-12-11T22:25:27.120Z,93885.19
2022-12-11T22:27:25.508Z,93890.97
2022-12-11T22:29:25.277Z,93885.56
2022-12-11T22:31:27.172Z,93899.72
2022-12-11T22:33:25.792Z,93899.59
2022-12-11T22:35:27.313Z,93911.28
2022-12-11T22:37:26.383Z,93900.19
2022-12-11T22:39:25.604Z,93919.78
2022-12-11T22:41:26.872Z,93920.63
2022-12-11T22:43:25.244Z,93916.84
2022-12-11T22:45:23.557Z,93911.41
2022-12-11T22:47:21.876Z,93909.28
2022-12-11T22:49:20.808Z,93920.25
2022-12-11T22:51:21.305Z,93916.13
2022-12-11T22:53:19.483Z,93920.50
2022-12-11T22:55:17.693Z,93925.09
2022-12-11T22:57:16.046Z,93935.03
2022-12-11T22:59:14.238Z,93927.84
2022-12-11T23:01:15.184Z,93934.44
2022-12-11T23:03:13.414Z,93933.47
2022-12-11T23:05:12.600Z,93930.19
2022-12-11T23:07:12.343Z,93936.22
2022-12-11T23:09:11.756Z,93939.16
2022-12-11T23:11:15.152Z,93936.44
2022-12-11T23:13:13.502Z,93942.69
2022-12-11T23:15:12.331Z,93940.00
2022-12-11T23:17:10.969Z,93943.41
2022-12-11T23:19:09.256Z,93935.72
2022-12-11T23:21:07.751Z,93933.72
2022-12-11T23:23:07.399Z,93939.28
2022-12-11T23:25:08.735Z,93942.81
2022-12-11T23:27:07.098Z,93951.31
2022-12-11T23:29:06.631Z,93942.94
2022-12-11T23:31:04.977Z,93942.00
2022-12-11T23:33:03.260Z,93942.34
2022-12-11T23:35:01.438Z,93947.44
2022-12-11T23:37:00.950Z,93945.06
2022-12-11T23:39:00.569Z,93951.69
2022-12-11T23:41:00.233Z,93951.44
2022-12-11T23:42:58.833Z,93960.28
2022-12-11T23:44:57.321Z,93961.84